sensor_id;sensor_type;location;lat;lon;timestamp;P1;durP1;ratioP1;P2;durP2;ratioP2
68275;SDS011;55106;51.438;-0.098;2022-11-24T00:01:27;11.43;;;1.87;;
68275;SDS011;55106;51.438;-0.098;2022-11-24T00:03:55;14.75;;;2.25;;
68275;SDS011;55106;51.438;-0.098;2022-11-24T00:06:21;11.43;;;1.92;;
68275;SDS011;55106;51.438;-0.098;2022-11-24T00:08:46;11.60;;;2.08;;
68275;SDS011;55106;51.438;-0.098;2022-11-24T00:11:13;13.00;;;1.70;;
68275;SDS011;55106;51.438;-0.098;2022-11-24T00:13:40;11.40;;;2.20;;
68275;SDS011;55106;51.438;-0.098;2022-11-24T00:16:10;10.50;;;2.53;;
68275;SDS011;55106;51.438;-0.098;2022-11-24T00:18:40;10.95;;;2.10;;
68275;SDS011;55106;51.438;-0.098;2022-11-24T00:21:06;10.90;;;1.95;;
68275;SDS011;55106;51.438;-0.098;2022-11-24T00:23:33;9.80;;;1.80;;
68275;SDS011;55106;51.438;-0.098;2022-11-24T00:26:05;8.82;;;1.40;;
68275;SDS011;55106;51.438;-0.098;2022-11-24T00:28:33;9.82;;;1.77;;
68275;SDS011;55106;51.438;-0.098;2022-11-24T00:30:59;10.82;;;2.05;;
68275;SDS011;55106;51.438;-0.098;2022-11-24T00:33:25;10.70;;;1.97;;
68275;SDS011;55106;51.438;-0.098;2022-11-24T00:35:57;9.35;;;2.03;;
68275;SDS011;55106;51.438;-0.098;2022-11-24T00:38:23;8.97;;;1.70;;
68275;SDS011;55106;51.438;-0.098;2022-11-24T00:40:50;15.05;;;2.28;;
68275;SDS011;55106;51.438;-0.098;2022-11-24T00:43:16;10.95;;;2.00;;
68275;SDS011;55106;51.438;-0.098;2022-11-24T00:45:41;9.88;;;1.85;;
68275;SDS011;55106;51.438;-0.098;2022-11-24T00:48:07;14.90;;;2.10;;
68275;SDS011;55106;51.438;-0.098;2022-11-24T00:50:32;10.67;;;2.27;;
68275;SDS011;55106;51.438;-0.098;2022-11-24T00:52:58;8.93;;;1.97;;
68275;SDS011;55106;51.438;-0.098;2022-11-24T00:55:23;10.83;;;2.10;;
68275;SDS011;55106;51.438;-0.098;2022-11-24T00:57:49;10.70;;;2.10;;
68275;SDS011;55106;51.438;-0.098;2022-11-24T01:00:14;10.70;;;2.37;;
68275;SDS011;55106;51.438;-0.098;2022-11-24T01:02:40;6.25;;;1.42;;
68275;SDS011;55106;51.438;-0.098;2022-11-24T01:05:06;7.40;;;1.40;;
68275;SDS011;55106;51.438;-0.098;2022-11-24T01:07:31;5.07;;;1.40;;
68275;SDS011;55106;51.438;-0.098;2022-11-24T01:09:57;9.17;;;1.40;;
68275;SDS011;55106;51.438;-0.098;2022-11-24T01:12:22;7.40;;;1.60;;
68275;SDS011;55106;51.438;-0.098;2022-11-24T01:14:47;6.17;;;1.50;;
68275;SDS011;55106;51.438;-0.098;2022-11-24T01:17:13;4.70;;;1.10;;
68275;SDS011;55106;51.438;-0.098;2022-11-24T01:19:38;5.07;;;1.27;;
68275;SDS011;55106;51.438;-0.098;2022-11-24T01:22:04;3.93;;;1.07;;
68275;SDS011;55106;51.438;-0.098;2022-11-24T01:24:29;5.77;;;1.30;;
68275;SDS011;55106;51.438;-0.098;2022-11-24T01:26:54;7.60;;;1.53;;
68275;SDS011;55106;51.438;-0.098;2022-11-24T01:29:25;5.97;;;1.20;;
68275;SDS011;55106;51.438;-0.098;2022-11-24T01:31:50;5.40;;;1.03;;
68275;SDS011;55106;51.438;-0.098;2022-11-24T01:34:16;4.47;;;1.40;;
68275;SDS011;55106;51.438;-0.098;2022-11-24T01:36:41;8.45;;;1.75;;
68275;SDS011;55106;51.438;-0.098;2022-11-24T01:39:07;6.07;;;1.20;;
68275;SDS011;55106;51.438;-0.098;2022-11-24T01:41:32;8.83;;;1.40;;
68275;SDS011;55106;51.438;-0.098;2022-11-24T01:43:59;7.82;;;1.48;;
68275;SDS011;55106;51.438;-0.098;2022-11-24T01:46:32;9.00;;;1.40;;
68275;SDS011;55106;51.438;-0.098;2022-11-24T01:49:34;8.60;;;1.60;;
68275;SDS011;55106;51.438;-0.098;2022-11-24T01:52:05;5.78;;;1.30;;
68275;SDS011;55106;51.438;-0.098;2022-11-24T01:54:35;6.20;;;1.30;;
68275;SDS011;55106;51.438;-0.098;2022-11-24T01:57:16;5.75;;;1.48;;
68275;SDS011;55106;51.438;-0.098;2022-11-24T01:59:49;5.47;;;1.20;;
68275;SDS011;55106;51.438;-0.098;2022-11-24T02:02:19;8.25;;;1.33;;
68275;SDS011;55106;51.438;-0.098;2022-11-24T02:04:45;6.40;;;1.48;;
68275;SDS011;55106;51.438;-0.098;2022-11-24T02:07:11;5.03;;;1.40;;
68275;SDS011;55106;51.438;-0.098;2022-11-24T02:09:39;8.38;;;1.70;;
68275;SDS011;55106;51.438;-0.098;2022-11-24T02:12:09;5.03;;;1.57;;
68275;SDS011;55106;51.438;-0.098;2022-11-24T02:14:35;7.53;;;1.40;;
68275;SDS011;55106;51.438;-0.098;2022-11-24T02:17:02;9.85;;;1.50;;
68275;SDS011;55106;51.438;-0.098;2022-11-24T02:22:01;5.97;;;1.77;;
68275;SDS011;55106;51.438;-0.098;2022-11-24T02:26:56;7.80;;;1.67;;
68275;SDS011;55106;51.438;-0.098;2022-11-24T02:29:21;7.27;;;1.50;;
68275;SDS011;55106;51.438;-0.098;2022-11-24T02:31:48;10.13;;;1.97;;
68275;SDS011;55106;51.438;-0.098;2022-11-24T02:34:19;8.20;;;1.40;;
68275;SDS011;55106;51.438;-0.098;2022-11-24T02:36:44;9.80;;;1.60;;
68275;SDS011;55106;51.438;-0.098;2022-11-24T02:39:10;7.50;;;1.40;;
68275;SDS011;55106;51.438;-0.098;2022-11-24T02:41:40;8.10;;;2.07;;
68275;SDS011;55106;51.438;-0.098;2022-11-24T02:44:08;6.47;;;1.30;;
68275;SDS011;55106;51.438;-0.098;2022-11-24T02:46:38;7.85;;;1.63;;
68275;SDS011;55106;51.438;-0.098;2022-11-24T02:49:03;6.77;;;1.90;;
68275;SDS011;55106;51.438;-0.098;2022-11-24T02:51:28;9.83;;;1.80;;
68275;SDS011;55106;51.438;-0.098;2022-11-24T02:53:54;8.13;;;1.65;;
68275;SDS011;55106;51.438;-0.098;2022-11-24T02:56:19;10.10;;;1.90;;
68275;SDS011;55106;51.438;-0.098;2022-11-24T02:58:44;7.80;;;1.90;;
68275;SDS011;55106;51.438;-0.098;2022-11-24T03:01:10;10.97;;;2.00;;
68275;SDS011;55106;51.438;-0.098;2022-11-24T03:03:35;9.13;;;2.00;;
68275;SDS011;55106;51.438;-0.098;2022-11-24T03:06:01;8.38;;;2.08;;
68275;SDS011;55106;51.438;-0.098;2022-11-24T03:08:26;9.37;;;1.83;;
68275;SDS011;55106;51.438;-0.098;2022-11-24T03:10:52;9.17;;;1.80;;
68275;SDS011;55106;51.438;-0.098;2022-11-24T03:13:18;8.60;;;1.88;;
68275;SDS011;55106;51.438;-0.098;2022-11-24T03:15:44;16.57;;;2.57;;
68275;SDS011;55106;51.438;-0.098;2022-11-24T03:18:09;7.97;;;2.03;;
68275;SDS011;55106;51.438;-0.098;2022-11-24T03:20:34;10.68;;;2.08;;
68275;SDS011;55106;51.438;-0.098;2022-11-24T03:23:00;8.17;;;1.47;;
68275;SDS011;55106;51.438;-0.098;2022-11-24T03:25:25;9.17;;;1.77;;
68275;SDS011;55106;51.438;-0.098;2022-11-24T03:27:50;12.10;;;1.90;;
68275;SDS011;55106;51.438;-0.098;2022-11-24T03:30:16;10.55;;;1.85;;
68275;SDS011;55106;51.438;-0.098;2022-11-24T03:32:42;10.33;;;1.83;;
68275;SDS011;55106;51.438;-0.098;2022-11-24T03:35:07;10.47;;;1.60;;
68275;SDS011;55106;51.438;-0.098;2022-11-24T03:37:33;12.88;;;2.60;;
68275;SDS011;55106;51.438;-0.098;2022-11-24T03:39:59;12.83;;;2.00;;
68275;SDS011;55106;51.438;-0.098;2022-11-24T03:42:24;11.90;;;1.77;;
68275;SDS011;55106;51.438;-0.098;2022-11-24T03:44:49;12.77;;;1.97;;
68275;SDS011;55106;51.438;-0.098;2022-11-24T03:47:15;9.77;;;1.80;;
68275;SDS011;55106;51.438;-0.098;2022-11-24T03:49:40;16.70;;;2.70;;
68275;SDS011;55106;51.438;-0.098;2022-11-24T03:52:06;10.77;;;2.65;;
68275;SDS011;55106;51.438;-0.098;2022-11-24T03:54:32;11.53;;;1.80;;
68275;SDS011;55106;51.438;-0.098;2022-11-24T03:56:57;11.98;;;2.85;;
68275;SDS011;55106;51.438;-0.098;2022-11-24T03:59:23;17.47;;;2.47;;
68275;SDS011;55106;51.438;-0.098;2022-11-24T04:01:48;12.60;;;2.20;;
68275;SDS011;55106;51.438;-0.098;2022-11-24T04:04:14;20.70;;;2.10;;
68275;SDS011;55106;51.438;-0.098;2022-11-24T04:06:39;12.33;;;2.27;;
68275;SDS011;55106;51.438;-0.098;2022-11-24T04:09:05;12.38;;;1.98;;
68275;SDS011;55106;51.438;-0.098;2022-11-24T04:11:30;18.77;;;2.20;;
68275;SDS011;55106;51.438;-0.098;2022-11-24T04:14:15;17.45;;;2.78;;
68275;SDS011;55106;51.438;-0.098;2022-11-24T04:16:40;9.67;;;2.30;;
68275;SDS011;55106;51.438;-0.098;2022-11-24T04:19:06;15.18;;;2.28;;
68275;SDS011;55106;51.438;-0.098;2022-11-24T04:21:31;11.50;;;2.40;;
68275;SDS011;55106;51.438;-0.098;2022-11-24T04:23:56;11.90;;;2.33;;
68275;SDS011;55106;51.438;-0.098;2022-11-24T04:26:22;14.97;;;2.63;;
68275;SDS011;55106;51.438;-0.098;2022-11-24T04:28:47;17.87;;;2.20;;
68275;SDS011;55106;51.438;-0.098;2022-11-24T04:31:12;13.70;;;2.50;;
68275;SDS011;55106;51.438;-0.098;2022-11-24T04:33:38;16.77;;;2.90;;
68275;SDS011;55106;51.438;-0.098;2022-11-24T04:36:03;14.70;;;2.30;;
68275;SDS011;55106;51.438;-0.098;2022-11-24T04:38:29;13.70;;;2.20;;
68275;SDS011;55106;51.438;-0.098;2022-11-24T04:40:54;12.47;;;2.73;;
68275;SDS011;55106;51.438;-0.098;2022-11-24T04:43:19;14.23;;;2.33;;
68275;SDS011;55106;51.438;-0.098;2022-11-24T04:45:45;15.53;;;1.90;;
68275;SDS011;55106;51.438;-0.098;2022-11-24T04:48:11;15.80;;;2.47;;
68275;SDS011;55106;51.438;-0.098;2022-11-24T04:50:36;9.50;;;2.13;;
68275;SDS011;55106;51.438;-0.098;2022-11-24T04:53:03;11.63;;;2.25;;
68275;SDS011;55106;51.438;-0.098;2022-11-24T04:55:29;12.73;;;2.33;;
68275;SDS011;55106;51.438;-0.098;2022-11-24T04:57:54;15.93;;;2.40;;
68275;SDS011;55106;51.438;-0.098;2022-11-24T05:00:20;15.50;;;2.57;;
68275;SDS011;55106;51.438;-0.098;2022-11-24T05:02:45;10.90;;;2.38;;
68275;SDS011;55106;51.438;-0.098;2022-11-24T05:05:11;14.33;;;2.50;;
68275;SDS011;55106;51.438;-0.098;2022-11-24T05:07:36;19.50;;;2.83;;
68275;SDS011;55106;51.438;-0.098;2022-11-24T05:10:02;19.47;;;3.00;;
68275;SDS011;55106;51.438;-0.098;2022-11-24T05:12:52;10.27;;;2.13;;
68275;SDS011;55106;51.438;-0.098;2022-11-24T05:15:20;21.27;;;3.25;;
68275;SDS011;55106;51.438;-0.098;2022-11-24T05:17:45;13.63;;;2.70;;
68275;SDS011;55106;51.438;-0.098;2022-11-24T05:20:10;24.05;;;2.53;;
68275;SDS011;55106;51.438;-0.098;2022-11-24T05:22:36;16.03;;;2.13;;
68275;SDS011;55106;51.438;-0.098;2022-11-24T05:25:01;12.17;;;2.07;;
68275;SDS011;55106;51.438;-0.098;2022-11-24T05:27:27;20.23;;;2.90;;
68275;SDS011;55106;51.438;-0.098;2022-11-24T05:29:52;18.25;;;3.33;;
68275;SDS011;55106;51.438;-0.098;2022-11-24T05:32:18;14.50;;;3.03;;
68275;SDS011;55106;51.438;-0.098;2022-11-24T05:34:44;14.55;;;2.75;;
68275;SDS011;55106;51.438;-0.098;2022-11-24T05:37:09;13.60;;;2.33;;
68275;SDS011;55106;51.438;-0.098;2022-11-24T05:39:35;12.30;;;2.10;;
68275;SDS011;55106;51.438;-0.098;2022-11-24T05:42:01;19.25;;;2.53;;
68275;SDS011;55106;51.438;-0.098;2022-11-24T05:44:47;13.02;;;3.08;;
68275;SDS011;55106;51.438;-0.098;2022-11-24T05:47:13;22.37;;;2.90;;
68275;SDS011;55106;51.438;-0.098;2022-11-24T05:49:38;15.47;;;3.10;;
68275;SDS011;55106;51.438;-0.098;2022-11-24T05:52:04;17.90;;;3.17;;
68275;SDS011;55106;51.438;-0.098;2022-11-24T05:54:29;19.97;;;2.93;;
68275;SDS011;55106;51.438;-0.098;2022-11-24T05:56:54;15.77;;;2.77;;
68275;SDS011;55106;51.438;-0.098;2022-11-24T05:59:20;18.08;;;2.75;;
68275;SDS011;55106;51.438;-0.098;2022-11-24T06:01:45;10.20;;;2.93;;
68275;SDS011;55106;51.438;-0.098;2022-11-24T06:04:11;19.93;;;2.80;;
68275;SDS011;55106;51.438;-0.098;2022-11-24T06:06:36;18.50;;;2.92;;
68275;SDS011;55106;51.438;-0.098;2022-11-24T06:09:02;18.40;;;2.63;;
68275;SDS011;55106;51.438;-0.098;2022-11-24T06:11:28;20.02;;;2.75;;
68275;SDS011;55106;51.438;-0.098;2022-11-24T06:13:53;16.37;;;2.90;;
68275;SDS011;55106;51.438;-0.098;2022-11-24T06:16:18;13.87;;;3.00;;
68275;SDS011;55106;51.438;-0.098;2022-11-24T06:18:44;14.03;;;2.60;;
68275;SDS011;55106;51.438;-0.098;2022-11-24T06:21:09;20.60;;;3.27;;
68275;SDS011;55106;51.438;-0.098;2022-11-24T06:23:34;13.97;;;3.37;;
68275;SDS011;55106;51.438;-0.098;2022-11-24T06:26:00;26.33;;;2.83;;
68275;SDS011;55106;51.438;-0.098;2022-11-24T06:28:26;14.10;;;2.67;;
68275;SDS011;55106;51.438;-0.098;2022-11-24T06:30:51;16.60;;;2.63;;
68275;SDS011;55106;51.438;-0.098;2022-11-24T06:33:17;14.70;;;2.83;;
68275;SDS011;55106;51.438;-0.098;2022-11-24T06:35:43;17.13;;;2.40;;
68275;SDS011;55106;51.438;-0.098;2022-11-24T06:38:08;15.57;;;2.80;;
68275;SDS011;55106;51.438;-0.098;2022-11-24T06:40:34;17.27;;;2.43;;
68275;SDS011;55106;51.438;-0.098;2022-11-24T06:42:59;19.90;;;2.47;;
68275;SDS011;55106;51.438;-0.098;2022-11-24T06:45:25;13.57;;;2.40;;
68275;SDS011;55106;51.438;-0.098;2022-11-24T06:47:53;18.40;;;2.50;;
68275;SDS011;55106;51.438;-0.098;2022-11-24T06:50:19;14.30;;;2.80;;
68275;SDS011;55106;51.438;-0.098;2022-11-24T06:52:45;19.20;;;3.73;;
68275;SDS011;55106;51.438;-0.098;2022-11-24T06:55:10;11.23;;;2.40;;
68275;SDS011;55106;51.438;-0.098;2022-11-24T06:57:36;21.93;;;3.30;;
68275;SDS011;55106;51.438;-0.098;2022-11-24T07:00:02;19.20;;;3.40;;
68275;SDS011;55106;51.438;-0.098;2022-11-24T07:02:29;19.10;;;3.08;;
68275;SDS011;55106;51.438;-0.098;2022-11-24T07:04:54;13.90;;;2.63;;
68275;SDS011;55106;51.438;-0.098;2022-11-24T07:07:19;18.70;;;2.88;;
68275;SDS011;55106;51.438;-0.098;2022-11-24T07:09:45;18.77;;;3.57;;
68275;SDS011;55106;51.438;-0.098;2022-11-24T07:12:10;15.87;;;2.80;;
68275;SDS011;55106;51.438;-0.098;2022-11-24T07:14:36;24.53;;;3.70;;
68275;SDS011;55106;51.438;-0.098;2022-11-24T07:17:01;12.03;;;2.70;;
68275;SDS011;55106;51.438;-0.098;2022-11-24T07:19:28;19.35;;;2.75;;
68275;SDS011;55106;51.438;-0.098;2022-11-24T07:21:54;19.70;;;3.20;;
68275;SDS011;55106;51.438;-0.098;2022-11-24T07:24:19;20.27;;;3.73;;
68275;SDS011;55106;51.438;-0.098;2022-11-24T07:26:45;25.90;;;3.90;;
68275;SDS011;55106;51.438;-0.098;2022-11-24T07:29:10;18.93;;;3.07;;
68275;SDS011;55106;51.438;-0.098;2022-11-24T07:31:37;18.88;;;3.03;;
68275;SDS011;55106;51.438;-0.098;2022-11-24T07:34:02;22.53;;;3.37;;
68275;SDS011;55106;51.438;-0.098;2022-11-24T07:36:27;20.67;;;3.43;;
68275;SDS011;55106;51.438;-0.098;2022-11-24T07:38:56;15.45;;;2.78;;
68275;SDS011;55106;51.438;-0.098;2022-11-24T07:41:21;22.63;;;2.80;;
68275;SDS011;55106;51.438;-0.098;2022-11-24T07:43:47;26.10;;;3.63;;
68275;SDS011;55106;51.438;-0.098;2022-11-24T07:46:14;20.98;;;3.42;;
68275;SDS011;55106;51.438;-0.098;2022-11-24T07:48:41;22.10;;;3.30;;
68275;SDS011;55106;51.438;-0.098;2022-11-24T07:51:06;18.70;;;3.80;;
68275;SDS011;55106;51.438;-0.098;2022-11-24T07:53:34;22.50;;;3.40;;
68275;SDS011;55106;51.438;-0.098;2022-11-24T07:56:01;22.15;;;3.97;;
68275;SDS011;55106;51.438;-0.098;2022-11-24T07:58:28;15.98;;;2.85;;
68275;SDS011;55106;51.438;-0.098;2022-11-24T08:00:55;17.80;;;3.13;;
68275;SDS011;55106;51.438;-0.098;2022-11-24T08:03:21;16.73;;;3.47;;
68275;SDS011;55106;51.438;-0.098;2022-11-24T08:05:56;16.87;;;3.00;;
68275;SDS011;55106;51.438;-0.098;2022-11-24T08:08:23;17.77;;;2.83;;
68275;SDS011;55106;51.438;-0.098;2022-11-24T08:10:49;16.45;;;2.70;;
68275;SDS011;55106;51.438;-0.098;2022-11-24T08:13:15;17.63;;;3.00;;
68275;SDS011;55106;51.438;-0.098;2022-11-24T08:15:40;19.30;;;2.78;;
68275;SDS011;55106;51.438;-0.098;2022-11-24T08:18:06;21.17;;;3.10;;
68275;SDS011;55106;51.438;-0.098;2022-11-24T08:20:31;12.87;;;2.63;;
68275;SDS011;55106;51.438;-0.098;2022-11-24T08:22:57;17.20;;;3.25;;
68275;SDS011;55106;51.438;-0.098;2022-11-24T08:25:23;16.57;;;2.97;;
68275;SDS011;55106;51.438;-0.098;2022-11-24T08:27:58;19.58;;;3.17;;
68275;SDS011;55106;51.438;-0.098;2022-11-24T08:30:24;12.88;;;2.70;;
68275;SDS011;55106;51.438;-0.098;2022-11-24T08:32:50;22.93;;;3.13;;
68275;SDS011;55106;51.438;-0.098;2022-11-24T08:35:15;16.20;;;3.13;;
68275;SDS011;55106;51.438;-0.098;2022-11-24T08:37:40;14.77;;;2.67;;
68275;SDS011;55106;51.438;-0.098;2022-11-24T08:40:06;21.10;;;2.47;;
68275;SDS011;55106;51.438;-0.098;2022-11-24T08:42:32;20.05;;;3.42;;
68275;SDS011;55106;51.438;-0.098;2022-11-24T08:44:57;18.10;;;2.63;;
68275;SDS011;55106;51.438;-0.098;2022-11-24T08:47:22;20.53;;;2.93;;
68275;SDS011;55106;51.438;-0.098;2022-11-24T08:49:48;19.93;;;3.00;;
68275;SDS011;55106;51.438;-0.098;2022-11-24T08:52:14;17.60;;;3.20;;
68275;SDS011;55106;51.438;-0.098;2022-11-24T08:54:40;17.35;;;3.00;;
68275;SDS011;55106;51.438;-0.098;2022-11-24T08:57:08;22.17;;;3.08;;
68275;SDS011;55106;51.438;-0.098;2022-11-24T08:59:34;27.97;;;3.80;;
68275;SDS011;55106;51.438;-0.098;2022-11-24T09:01:59;22.08;;;2.78;;
68275;SDS011;55106;51.438;-0.098;2022-11-24T09:04:24;17.40;;;3.20;;
68275;SDS011;55106;51.438;-0.098;2022-11-24T09:06:49;18.70;;;3.17;;
68275;SDS011;55106;51.438;-0.098;2022-11-24T09:09:15;19.53;;;3.07;;
68275;SDS011;55106;51.438;-0.098;2022-11-24T09:11:40;16.57;;;2.70;;
68275;SDS011;55106;51.438;-0.098;2022-11-24T09:14:06;26.03;;;3.93;;
68275;SDS011;55106;51.438;-0.098;2022-11-24T09:16:31;20.13;;;3.47;;
68275;SDS011;55106;51.438;-0.098;2022-11-24T09:18:57;17.70;;;2.67;;
68275;SDS011;55106;51.438;-0.098;2022-11-24T09:21:24;19.17;;;3.10;;
68275;SDS011;55106;51.438;-0.098;2022-11-24T09:23:50;20.27;;;3.33;;
68275;SDS011;55106;51.438;-0.098;2022-11-24T09:26:18;20.08;;;3.25;;
68275;SDS011;55106;51.438;-0.098;2022-11-24T09:28:52;18.20;;;2.77;;
68275;SDS011;55106;51.438;-0.098;2022-11-24T09:31:19;20.92;;;3.33;;
68275;SDS011;55106;51.438;-0.098;2022-11-24T09:33:45;20.23;;;3.90;;
68275;SDS011;55106;51.438;-0.098;2022-11-24T09:36:11;20.40;;;3.42;;
68275;SDS011;55106;51.438;-0.098;2022-11-24T09:38:37;14.90;;;3.20;;
68275;SDS011;55106;51.438;-0.098;2022-11-24T09:43:59;15.75;;;3.90;;
68275;SDS011;55106;51.438;-0.098;2022-11-24T09:46:33;24.02;;;3.28;;
68275;SDS011;55106;51.438;-0.098;2022-11-24T09:49:09;25.70;;;3.70;;
68275;SDS011;55106;51.438;-0.098;2022-11-24T09:51:38;22.67;;;3.58;;
68275;SDS011;55106;51.438;-0.098;2022-11-24T09:54:15;22.10;;;3.13;;
68275;SDS011;55106;51.438;-0.098;2022-11-24T09:56:43;22.00;;;3.83;;
68275;SDS011;55106;51.438;-0.098;2022-11-24T09:59:14;21.77;;;5.03;;
68275;SDS011;55106;51.438;-0.098;2022-11-24T10:01:44;24.55;;;4.55;;
68275;SDS011;55106;51.438;-0.098;2022-11-24T10:04:13;20.10;;;4.30;;
68275;SDS011;55106;51.438;-0.098;2022-11-24T10:20:23;25.70;;;4.00;;
68275;SDS011;55106;51.438;-0.098;2022-11-24T10:23:44;17.73;;;3.75;;
68275;SDS011;55106;51.438;-0.098;2022-11-24T10:26:00;19.13;;;3.35;;
68275;SDS011;55106;51.438;-0.098;2022-11-24T10:29:00;23.35;;;4.28;;
68275;SDS011;55106;51.438;-0.098;2022-11-24T10:31:35;24.58;;;4.13;;
68275;SDS011;55106;51.438;-0.098;2022-11-24T10:34:08;22.20;;;3.67;;
68275;SDS011;55106;51.438;-0.098;2022-11-24T10:36:42;23.13;;;4.00;;
68275;SDS011;55106;51.438;-0.098;2022-11-24T10:39:14;19.00;;;3.35;;
68275;SDS011;55106;51.438;-0.098;2022-11-24T10:41:48;19.50;;;3.65;;
68275;SDS011;55106;51.438;-0.098;2022-11-24T10:44:20;18.77;;;3.25;;
68275;SDS011;55106;51.438;-0.098;2022-11-24T10:46:45;27.90;;;3.87;;
68275;SDS011;55106;51.438;-0.098;2022-11-24T10:49:17;25.80;;;5.23;;
68275;SDS011;55106;51.438;-0.098;2022-11-24T10:54:31;27.60;;;4.20;;
68275;SDS011;55106;51.438;-0.098;2022-11-24T10:56:57;22.23;;;3.60;;
68275;SDS011;55106;51.438;-0.098;2022-11-24T11:01:49;27.57;;;4.40;;
68275;SDS011;55106;51.438;-0.098;2022-11-24T11:04:23;24.42;;;3.90;;
68275;SDS011;55106;51.438;-0.098;2022-11-24T11:06:49;25.30;;;3.87;;
68275;SDS011;55106;51.438;-0.098;2022-11-24T11:09:19;21.80;;;5.10;;
68275;SDS011;55106;51.438;-0.098;2022-11-24T11:11:46;20.37;;;4.27;;
68275;SDS011;55106;51.438;-0.098;2022-11-24T11:14:31;22.67;;;4.55;;
68275;SDS011;55106;51.438;-0.098;2022-11-24T11:16:59;19.00;;;3.80;;
68275;SDS011;55106;51.438;-0.098;2022-11-24T11:19:38;29.30;;;4.60;;
68275;SDS011;55106;51.438;-0.098;2022-11-24T11:24:33;16.75;;;3.95;;
68275;SDS011;55106;51.438;-0.098;2022-11-24T11:27:00;15.50;;;3.45;;
68275;SDS011;55106;51.438;-0.098;2022-11-24T11:29:29;23.77;;;4.05;;
68275;SDS011;55106;51.438;-0.098;2022-11-24T11:31:56;24.57;;;4.30;;
68275;SDS011;55106;51.438;-0.098;2022-11-24T11:34:26;18.23;;;3.83;;
68275;SDS011;55106;51.438;-0.098;2022-11-24T11:37:00;22.80;;;3.58;;
68275;SDS011;55106;51.438;-0.098;2022-11-24T11:39:31;19.65;;;3.38;;
68275;SDS011;55106;51.438;-0.098;2022-11-24T11:42:16;18.33;;;3.53;;
68275;SDS011;55106;51.438;-0.098;2022-11-24T11:47:57;20.17;;;3.25;;
68275;SDS011;55106;51.438;-0.098;2022-11-24T11:50:39;27.50;;;3.53;;
68275;SDS011;55106;51.438;-0.098;2022-11-24T11:53:16;19.80;;;3.72;;
68275;SDS011;55106;51.438;-0.098;2022-11-24T11:59:21;21.70;;;3.80;;
68275;SDS011;55106;51.438;-0.098;2022-11-24T12:02:26;20.00;;;3.10;;
68275;SDS011;55106;51.438;-0.098;2022-11-24T12:05:23;16.02;;;3.30;;
68275;SDS011;55106;51.438;-0.098;2022-11-24T12:07:57;20.05;;;3.13;;
68275;SDS011;55106;51.438;-0.098;2022-11-24T12:15:56;20.95;;;3.00;;
68275;SDS011;55106;51.438;-0.098;2022-11-24T12:23:51;20.13;;;3.60;;
68275;SDS011;55106;51.438;-0.098;2022-11-24T12:34:23;19.95;;;3.75;;
68275;SDS011;55106;51.438;-0.098;2022-11-24T12:42:52;16.83;;;3.10;;
68275;SDS011;55106;51.438;-0.098;2022-11-24T12:50:42;14.02;;;3.17;;
68275;SDS011;55106;51.438;-0.098;2022-11-24T12:55:56;15.57;;;3.42;;
68275;SDS011;55106;51.438;-0.098;2022-11-24T13:03:57;16.63;;;2.83;;
68275;SDS011;55106;51.438;-0.098;2022-11-24T13:06:45;23.60;;;3.17;;
68275;SDS011;55106;51.438;-0.098;2022-11-24T13:09:16;19.92;;;3.40;;
68275;SDS011;55106;51.438;-0.098;2022-11-24T13:11:45;21.63;;;3.70;;
68275;SDS011;55106;51.438;-0.098;2022-11-24T13:14:12;19.58;;;3.83;;
68275;SDS011;55106;51.438;-0.098;2022-11-24T13:16:48;22.95;;;3.65;;
68275;SDS011;55106;51.438;-0.098;2022-11-24T13:19:16;16.55;;;2.80;;
68275;SDS011;55106;51.438;-0.098;2022-11-24T13:22:30;17.27;;;2.92;;
68275;SDS011;55106;51.438;-0.098;2022-11-24T13:24:31;21.07;;;3.50;;
68275;SDS011;55106;51.438;-0.098;2022-11-24T13:29:43;11.23;;;2.80;;
68275;SDS011;55106;51.438;-0.098;2022-11-24T13:42:20;15.63;;;2.78;;
68275;SDS011;55106;51.438;-0.098;2022-11-24T13:45:04;22.38;;;4.30;;
68275;SDS011;55106;51.438;-0.098;2022-11-24T13:47:49;19.35;;;3.10;;
68275;SDS011;55106;51.438;-0.098;2022-11-24T13:55:37;15.77;;;2.63;;
68275;SDS011;55106;51.438;-0.098;2022-11-24T14:00:33;26.70;;;4.00;;
68275;SDS011;55106;51.438;-0.098;2022-11-24T14:03:05;17.67;;;3.03;;
68275;SDS011;55106;51.438;-0.098;2022-11-24T14:05:46;16.88;;;3.05;;
68275;SDS011;55106;51.438;-0.098;2022-11-24T14:08:18;20.35;;;4.15;;
68275;SDS011;55106;51.438;-0.098;2022-11-24T14:10:47;20.57;;;3.40;;
68275;SDS011;55106;51.438;-0.098;2022-11-24T14:18:34;18.37;;;3.23;;
68275;SDS011;55106;51.438;-0.098;2022-11-24T14:21:14;20.13;;;3.30;;
68275;SDS011;55106;51.438;-0.098;2022-11-24T14:23:48;21.77;;;2.95;;
68275;SDS011;55106;51.438;-0.098;2022-11-24T14:29:05;17.00;;;3.60;;
68275;SDS011;55106;51.438;-0.098;2022-11-24T14:31:41;21.37;;;3.40;;
68275;SDS011;55106;51.438;-0.098;2022-11-24T14:34:19;21.73;;;3.42;;
68275;SDS011;55106;51.438;-0.098;2022-11-24T14:36:46;26.20;;;3.42;;
68275;SDS011;55106;51.438;-0.098;2022-11-24T14:39:13;21.02;;;3.70;;
68275;SDS011;55106;51.438;-0.098;2022-11-24T14:42:05;21.27;;;4.03;;
68275;SDS011;55106;51.438;-0.098;2022-11-24T14:44:33;22.87;;;3.50;;
68275;SDS011;55106;51.438;-0.098;2022-11-24T14:47:12;16.25;;;2.97;;
68275;SDS011;55106;51.438;-0.098;2022-11-24T14:49:42;17.83;;;3.45;;
68275;SDS011;55106;51.438;-0.098;2022-11-24T14:52:10;19.53;;;3.53;;
68275;SDS011;55106;51.438;-0.098;2022-11-24T14:54:48;23.02;;;3.33;;
68275;SDS011;55106;51.438;-0.098;2022-11-24T15:05:55;16.83;;;2.90;;
68275;SDS011;55106;51.438;-0.098;2022-11-24T15:08:23;20.20;;;3.58;;
68275;SDS011;55106;51.438;-0.098;2022-11-24T15:10:57;22.70;;;3.55;;
68275;SDS011;55106;51.438;-0.098;2022-11-24T15:13:24;21.45;;;3.80;;
68275;SDS011;55106;51.438;-0.098;2022-11-24T15:18:39;18.67;;;3.55;;
68275;SDS011;55106;51.438;-0.098;2022-11-24T15:21:07;13.55;;;2.83;;
68275;SDS011;55106;51.438;-0.098;2022-11-24T15:23:33;21.77;;;3.63;;
68275;SDS011;55106;51.438;-0.098;2022-11-24T15:28:25;17.60;;;5.03;;
68275;SDS011;55106;51.438;-0.098;2022-11-24T15:30:54;15.27;;;3.10;;
68275;SDS011;55106;51.438;-0.098;2022-11-24T15:33:23;16.95;;;3.35;;
68275;SDS011;55106;51.438;-0.098;2022-11-24T15:35:48;15.27;;;2.83;;
68275;SDS011;55106;51.438;-0.098;2022-11-24T15:38:14;18.37;;;3.30;;
68275;SDS011;55106;51.438;-0.098;2022-11-24T15:40:44;19.77;;;3.90;;
68275;SDS011;55106;51.438;-0.098;2022-11-24T15:43:30;15.15;;;2.63;;
68275;SDS011;55106;51.438;-0.098;2022-11-24T15:45:57;17.73;;;3.78;;
68275;SDS011;55106;51.438;-0.098;2022-11-24T15:48:24;17.27;;;3.40;;
68275;SDS011;55106;51.438;-0.098;2022-11-24T15:50:49;16.35;;;3.42;;
68275;SDS011;55106;51.438;-0.098;2022-11-24T15:53:18;14.93;;;3.60;;
68275;SDS011;55106;51.438;-0.098;2022-11-24T15:55:46;15.75;;;2.83;;
68275;SDS011;55106;51.438;-0.098;2022-11-24T15:58:12;16.13;;;3.40;;
68275;SDS011;55106;51.438;-0.098;2022-11-24T16:00:39;18.40;;;2.72;;
68275;SDS011;55106;51.438;-0.098;2022-11-24T16:03:06;13.75;;;2.40;;
68275;SDS011;55106;51.438;-0.098;2022-11-24T16:05:32;16.07;;;3.00;;
68275;SDS011;55106;51.438;-0.098;2022-11-24T16:07:57;19.33;;;4.00;;
68275;SDS011;55106;51.438;-0.098;2022-11-24T16:10:30;16.58;;;2.70;;
68275;SDS011;55106;51.438;-0.098;2022-11-24T16:12:57;18.23;;;2.67;;
68275;SDS011;55106;51.438;-0.098;2022-11-24T16:15:22;19.02;;;3.00;;
68275;SDS011;55106;51.438;-0.098;2022-11-24T16:17:48;15.67;;;2.93;;
68275;SDS011;55106;51.438;-0.098;2022-11-24T16:20:14;14.73;;;3.47;;
68275;SDS011;55106;51.438;-0.098;2022-11-24T16:22:40;14.25;;;3.28;;
68275;SDS011;55106;51.438;-0.098;2022-11-24T16:25:06;11.55;;;2.53;;
68275;SDS011;55106;51.438;-0.098;2022-11-24T16:27:32;15.85;;;2.58;;